Mill Spring, North Carolina
Current Conditions -  °F | °C
As of 10:15 AM on Saturday 20 Dec 2014 (Local Time) from KFQD Reporting Station
Drizzle Drizzle  
Wind Chill: 40°   Ceiling: 3200
Heat Index: 40°   Visibility: 10mi
Dew Point: 37°   Wind: 0mph
Humidity: 88%   Direction: NA
Pressure: 30.26"   Gusts: NA
Location:  35.3°N, 82.16°W
Report Text: KFQD 201515Z AUTO 00000KT 10SM -DZ OVC032 05/03 A3026 RMK AO2 T00470028
Loading
Personal Weather Stations






























Interactive Weather Map New forecast layout! Learn more

10-Day Weather Forecast

Advertisements
Track Severe Weather on mobile